sensor_id;sensor_type;location;lat;lon;timestamp;pressure;altitude;pressure_sealevel;temperature
6550;BMP280;15142;48.888;9.134;2023-06-22T00:01:05;98109.88;;;21.53
6550;BMP280;15142;48.888;9.134;2023-06-22T00:03:33;98116.47;;;21.47
6550;BMP280;15142;48.888;9.134;2023-06-22T00:06:02;98122.00;;;21.46
6550;BMP280;15142;48.888;9.134;2023-06-22T00:08:31;98114.91;;;21.43
6550;BMP280;15142;48.888;9.134;2023-06-22T00:11:02;98111.06;;;21.37
6550;BMP280;15142;48.888;9.134;2023-06-22T00:13:30;98125.84;;;21.33
6550;BMP280;15142;48.888;9.134;2023-06-22T00:15:59;98109.38;;;21.26
6550;BMP280;15142;48.888;9.134;2023-06-22T00:18:28;98113.22;;;21.13
6550;BMP280;15142;48.888;9.134;2023-06-22T00:20:57;98117.09;;;21.04
6550;BMP280;15142;48.888;9.134;2023-06-22T00:23:26;98121.75;;;20.95
6550;BMP280;15142;48.888;9.134;2023-06-22T00:26:02;98112.22;;;20.84
6550;BMP280;15142;48.888;9.134;2023-06-22T00:28:31;98110.59;;;20.76
6550;BMP280;15142;48.888;9.134;2023-06-22T00:31:01;98103.75;;;20.68
6550;BMP280;15142;48.888;9.134;2023-06-22T00:33:29;98101.41;;;20.63
6550;BMP280;15142;48.888;9.134;2023-06-22T00:35:58;98102.59;;;20.65
6550;BMP280;15142;48.888;9.134;2023-06-22T00:38:30;98112.97;;;20.65
6550;BMP280;15142;48.888;9.134;2023-06-22T00:40:59;98112.53;;;20.63
6550;BMP280;15142;48.888;9.134;2023-06-22T00:43:30;98110.22;;;20.59
6550;BMP280;15142;48.888;9.134;2023-06-22T00:45:58;98111.19;;;20.51
6550;BMP280;15142;48.888;9.134;2023-06-22T00:48:27;98109.00;;;20.37
6550;BMP280;15142;48.888;9.134;2023-06-22T00:50:56;98122.97;;;20.33
6550;BMP280;15142;48.888;9.134;2023-06-22T00:53:24;98157.28;;;20.42
6550;BMP280;15142;48.888;9.134;2023-06-22T00:55:54;98173.88;;;20.56
6550;BMP280;15142;48.888;9.134;2023-06-22T00:58:25;98154.66;;;20.57
6550;BMP280;15142;48.888;9.134;2023-06-22T01:00:56;98150.97;;;20.58
6550;BMP280;15142;48.888;9.134;2023-06-22T01:03:27;98179.84;;;20.57
6550;BMP280;15142;48.888;9.134;2023-06-22T01:06:02;98217.75;;;20.61
6550;BMP280;15142;48.888;9.134;2023-06-22T01:08:40;98197.66;;;20.58
6550;BMP280;15142;48.888;9.134;2023-06-22T01:11:18;98181.28;;;20.54
6550;BMP280;15142;48.888;9.134;2023-06-22T01:13:54;98184.13;;;20.49
6550;BMP280;15142;48.888;9.134;2023-06-22T01:16:30;98180.25;;;20.43
6550;BMP280;15142;48.888;9.134;2023-06-22T01:19:02;98161.72;;;20.41
6550;BMP280;15142;48.888;9.134;2023-06-22T01:21:37;98153.50;;;20.39
6550;BMP280;15142;48.888;9.134;2023-06-22T01:24:14;98162.03;;;20.40
6550;BMP280;15142;48.888;9.134;2023-06-22T01:26:54;98162.38;;;20.38
6550;BMP280;15142;48.888;9.134;2023-06-22T01:29:29;98160.13;;;20.37
6550;BMP280;15142;48.888;9.134;2023-06-22T01:31:59;98150.31;;;20.31
6550;BMP280;15142;48.888;9.134;2023-06-22T01:34:29;98146.91;;;20.27
6550;BMP280;15142;48.888;9.134;2023-06-22T01:36:59;98151.00;;;20.28
6550;BMP280;15142;48.888;9.134;2023-06-22T01:39:29;98141.88;;;20.34
6550;BMP280;15142;48.888;9.134;2023-06-22T01:41:59;98147.66;;;20.42
6550;BMP280;15142;48.888;9.134;2023-06-22T01:44:30;98143.03;;;20.51
6550;BMP280;15142;48.888;9.134;2023-06-22T01:47:00;98146.06;;;20.53
6550;BMP280;15142;48.888;9.134;2023-06-22T01:49:29;98142.72;;;20.53
6550;BMP280;15142;48.888;9.134;2023-06-22T01:51:58;98142.09;;;20.59
6550;BMP280;15142;48.888;9.134;2023-06-22T01:54:28;98145.13;;;20.61
6550;BMP280;15142;48.888;9.134;2023-06-22T01:56:56;98149.38;;;20.69
6550;BMP280;15142;48.888;9.134;2023-06-22T01:59:32;98154.13;;;20.67
6550;BMP280;15142;48.888;9.134;2023-06-22T02:02:07;98155.53;;;20.64
6550;BMP280;15142;48.888;9.134;2023-06-22T02:04:39;98145.16;;;20.64
6550;BMP280;15142;48.888;9.134;2023-06-22T02:07:13;98152.91;;;20.61
6550;BMP280;15142;48.888;9.134;2023-06-22T02:09:44;98165.28;;;20.52
6550;BMP280;15142;48.888;9.134;2023-06-22T02:12:17;98161.53;;;20.50
6550;BMP280;15142;48.888;9.134;2023-06-22T02:14:49;98163.38;;;20.49
6550;BMP280;15142;48.888;9.134;2023-06-22T02:17:19;98170.41;;;20.49
6550;BMP280;15142;48.888;9.134;2023-06-22T02:19:48;98162.13;;;20.43
6550;BMP280;15142;48.888;9.134;2023-06-22T02:22:16;98162.47;;;20.42
6550;BMP280;15142;48.888;9.134;2023-06-22T02:24:45;98160.97;;;20.41
6550;BMP280;15142;48.888;9.134;2023-06-22T02:27:13;98164.63;;;20.40
6550;BMP280;15142;48.888;9.134;2023-06-22T02:29:42;98164.88;;;20.35
6550;BMP280;15142;48.888;9.134;2023-06-22T02:32:13;98151.06;;;20.31
6550;BMP280;15142;48.888;9.134;2023-06-22T02:34:46;98143.66;;;20.30
6550;BMP280;15142;48.888;9.134;2023-06-22T02:37:15;98136.94;;;20.29
6550;BMP280;15142;48.888;9.134;2023-06-22T02:39:44;98144.31;;;20.27
6550;BMP280;15142;48.888;9.134;2023-06-22T02:42:13;98133.75;;;20.20
6550;BMP280;15142;48.888;9.134;2023-06-22T02:44:46;98134.44;;;20.17
6550;BMP280;15142;48.888;9.134;2023-06-22T02:47:17;98140.69;;;20.16
6550;BMP280;15142;48.888;9.134;2023-06-22T02:49:46;98133.94;;;20.11
6550;BMP280;15142;48.888;9.134;2023-06-22T02:52:15;98129.09;;;20.10
6550;BMP280;15142;48.888;9.134;2023-06-22T02:54:44;98126.91;;;20.12
6550;BMP280;15142;48.888;9.134;2023-06-22T02:57:14;98131.69;;;20.10
6550;BMP280;15142;48.888;9.134;2023-06-22T02:59:43;98113.38;;;20.03
6550;BMP280;15142;48.888;9.134;2023-06-22T03:02:12;98112.53;;;19.99
6550;BMP280;15142;48.888;9.134;2023-06-22T03:04:44;98118.81;;;19.98
6550;BMP280;15142;48.888;9.134;2023-06-22T03:07:14;98116.22;;;19.98
6550;BMP280;15142;48.888;9.134;2023-06-22T03:09:43;98122.06;;;19.95
6550;BMP280;15142;48.888;9.134;2023-06-22T03:12:12;98123.03;;;19.91
6550;BMP280;15142;48.888;9.134;2023-06-22T03:14:59;98116.59;;;19.85
6550;BMP280;15142;48.888;9.134;2023-06-22T03:17:27;98111.28;;;19.78
6550;BMP280;15142;48.888;9.134;2023-06-22T03:19:58;98117.00;;;19.72
6550;BMP280;15142;48.888;9.134;2023-06-22T03:22:27;98111.66;;;19.65
6550;BMP280;15142;48.888;9.134;2023-06-22T03:24:56;98105.72;;;19.64
6550;BMP280;15142;48.888;9.134;2023-06-22T03:27:25;98117.59;;;19.65
6550;BMP280;15142;48.888;9.134;2023-06-22T03:29:57;98104.66;;;19.65
6550;BMP280;15142;48.888;9.134;2023-06-22T03:32:27;98109.06;;;19.65
6550;BMP280;15142;48.888;9.134;2023-06-22T03:34:58;98098.25;;;19.63
6550;BMP280;15142;48.888;9.134;2023-06-22T03:37:28;98101.97;;;19.62
6550;BMP280;15142;48.888;9.134;2023-06-22T03:39:57;98106.72;;;19.60
6550;BMP280;15142;48.888;9.134;2023-06-22T03:42:27;98107.38;;;19.57
6550;BMP280;15142;48.888;9.134;2023-06-22T03:44:56;98103.03;;;19.61
6550;BMP280;15142;48.888;9.134;2023-06-22T03:47:26;98107.78;;;19.59
6550;BMP280;15142;48.888;9.134;2023-06-22T03:50:00;98103.69;;;19.58
6550;BMP280;15142;48.888;9.134;2023-06-22T03:52:29;98108.47;;;19.56
6550;BMP280;15142;48.888;9.134;2023-06-22T03:54:58;98108.78;;;19.54
6550;BMP280;15142;48.888;9.134;2023-06-22T03:57:26;98109.91;;;19.54
6550;BMP280;15142;48.888;9.134;2023-06-22T03:59:56;98098.00;;;19.53
6550;BMP280;15142;48.888;9.134;2023-06-22T04:02:25;98100.78;;;19.59
6550;BMP280;15142;48.888;9.134;2023-06-22T04:04:54;98088.94;;;19.74
6550;BMP280;15142;48.888;9.134;2023-06-22T04:07:25;98091.22;;;19.90
6550;BMP280;15142;48.888;9.134;2023-06-22T04:09:53;98096.97;;;19.99
6550;BMP280;15142;48.888;9.134;2023-06-22T04:12:22;98088.38;;;20.10
6550;BMP280;15142;48.888;9.134;2023-06-22T04:14:50;98094.47;;;20.18
6550;BMP280;15142;48.888;9.134;2023-06-22T04:17:19;98089.44;;;20.25
6550;BMP280;15142;48.888;9.134;2023-06-22T04:19:50;98092.53;;;20.30
6550;BMP280;15142;48.888;9.134;2023-06-22T04:22:18;98084.13;;;20.36
6550;BMP280;15142;48.888;9.134;2023-06-22T04:24:50;98092.75;;;20.40
6550;BMP280;15142;48.888;9.134;2023-06-22T04:27:18;98083.59;;;20.43
6550;BMP280;15142;48.888;9.134;2023-06-22T04:29:48;98085.56;;;20.49
6550;BMP280;15142;48.888;9.134;2023-06-22T04:32:17;98078.53;;;20.50
6550;BMP280;15142;48.888;9.134;2023-06-22T04:34:46;98078.59;;;20.53
6550;BMP280;15142;48.888;9.134;2023-06-22T04:37:14;98070.91;;;20.57
6550;BMP280;15142;48.888;9.134;2023-06-22T04:39:43;98075.47;;;20.63
6550;BMP280;15142;48.888;9.134;2023-06-22T04:42:14;98068.13;;;20.65
6550;BMP280;15142;48.888;9.134;2023-06-22T04:44:43;98069.75;;;20.73
6550;BMP280;15142;48.888;9.134;2023-06-22T04:47:11;98069.88;;;20.80
6550;BMP280;15142;48.888;9.134;2023-06-22T04:49:40;98077.41;;;20.85
6550;BMP280;15142;48.888;9.134;2023-06-22T04:52:10;98053.03;;;20.89
6550;BMP280;15142;48.888;9.134;2023-06-22T04:54:40;98061.97;;;20.91
6550;BMP280;15142;48.888;9.134;2023-06-22T04:57:16;98055.81;;;20.99
6550;BMP280;15142;48.888;9.134;2023-06-22T04:59:44;98055.59;;;21.08
6550;BMP280;15142;48.888;9.134;2023-06-22T05:02:13;98057.88;;;21.09
6550;BMP280;15142;48.888;9.134;2023-06-22T05:04:41;98055.47;;;21.19
6550;BMP280;15142;48.888;9.134;2023-06-22T05:07:10;98046.34;;;21.29
6550;BMP280;15142;48.888;9.134;2023-06-22T05:09:38;98050.81;;;21.28
6550;BMP280;15142;48.888;9.134;2023-06-22T05:12:07;98048.28;;;21.32
6550;BMP280;15142;48.888;9.134;2023-06-22T05:14:40;98044.19;;;21.31
6550;BMP280;15142;48.888;9.134;2023-06-22T05:17:08;98045.25;;;21.30
6550;BMP280;15142;48.888;9.134;2023-06-22T05:19:38;98043.13;;;21.35
6550;BMP280;15142;48.888;9.134;2023-06-22T05:22:14;98038.41;;;21.40
6550;BMP280;15142;48.888;9.134;2023-06-22T05:24:43;98035.84;;;21.44
6550;BMP280;15142;48.888;9.134;2023-06-22T05:27:12;98047.59;;;21.57
6550;BMP280;15142;48.888;9.134;2023-06-22T05:29:43;98045.75;;;21.57
6550;BMP280;15142;48.888;9.134;2023-06-22T05:32:11;98038.06;;;21.64
6550;BMP280;15142;48.888;9.134;2023-06-22T05:34:40;98027.03;;;21.70
6550;BMP280;15142;48.888;9.134;2023-06-22T05:37:09;98034.50;;;21.72
6550;BMP280;15142;48.888;9.134;2023-06-22T05:39:38;98027.50;;;21.76
6550;BMP280;15142;48.888;9.134;2023-06-22T05:42:07;98030.47;;;21.78
6550;BMP280;15142;48.888;9.134;2023-06-22T05:44:36;98037.59;;;21.81
6550;BMP280;15142;48.888;9.134;2023-06-22T05:47:08;98033.53;;;21.83
6550;BMP280;15142;48.888;9.134;2023-06-22T05:49:37;98032.41;;;21.81
6550;BMP280;15142;48.888;9.134;2023-06-22T05:52:06;98040.59;;;21.83
6550;BMP280;15142;48.888;9.134;2023-06-22T05:54:35;98037.94;;;21.79
6550;BMP280;15142;48.888;9.134;2023-06-22T05:57:04;98029.38;;;21.79
6550;BMP280;15142;48.888;9.134;2023-06-22T05:59:33;98031.28;;;21.82
6550;BMP280;15142;48.888;9.134;2023-06-22T06:02:02;98026.09;;;21.82
6550;BMP280;15142;48.888;9.134;2023-06-22T06:04:33;98031.78;;;21.91
6550;BMP280;15142;48.888;9.134;2023-06-22T06:07:02;98026.78;;;22.04
6550;BMP280;15142;48.888;9.134;2023-06-22T06:09:31;98026.19;;;22.14
6550;BMP280;15142;48.888;9.134;2023-06-22T06:11:59;98017.38;;;22.22
6550;BMP280;15142;48.888;9.134;2023-06-22T06:14:28;98022.28;;;22.27
6550;BMP280;15142;48.888;9.134;2023-06-22T06:16:57;98021.22;;;22.31
6550;BMP280;15142;48.888;9.134;2023-06-22T06:19:25;98020.56;;;22.38
6550;BMP280;15142;48.888;9.134;2023-06-22T06:21:57;98022.44;;;22.41
6550;BMP280;15142;48.888;9.134;2023-06-22T06:24:26;98017.97;;;22.41
6550;BMP280;15142;48.888;9.134;2023-06-22T06:26:55;98017.75;;;22.49
6550;BMP280;15142;48.888;9.134;2023-06-22T06:29:23;98020.50;;;22.63
6550;BMP280;15142;48.888;9.134;2023-06-22T06:31:52;98015.13;;;22.82
6550;BMP280;15142;48.888;9.134;2023-06-22T06:34:20;98023.34;;;22.84
6550;BMP280;15142;48.888;9.134;2023-06-22T06:36:49;98017.78;;;22.85
6550;BMP280;15142;48.888;9.134;2023-06-22T06:39:20;98018.97;;;22.94
6550;BMP280;15142;48.888;9.134;2023-06-22T06:41:49;98022.88;;;23.11
6550;BMP280;15142;48.888;9.134;2023-06-22T06:44:19;98028.88;;;23.18
6550;BMP280;15142;48.888;9.134;2023-06-22T06:46:47;98033.00;;;23.19
6550;BMP280;15142;48.888;9.134;2023-06-22T06:49:16;98036.38;;;23.23
6550;BMP280;15142;48.888;9.134;2023-06-22T06:51:45;98031.22;;;23.30
6550;BMP280;15142;48.888;9.134;2023-06-22T06:54:13;98037.56;;;23.29
6550;BMP280;15142;48.888;9.134;2023-06-22T06:56:44;98021.63;;;23.37
6550;BMP280;15142;48.888;9.134;2023-06-22T06:59:13;98015.00;;;23.50
6550;BMP280;15142;48.888;9.134;2023-06-22T07:01:42;98012.13;;;23.62
6550;BMP280;15142;48.888;9.134;2023-06-22T07:04:11;98006.25;;;23.71
6550;BMP280;15142;48.888;9.134;2023-06-22T07:06:39;98003.34;;;23.87
6550;BMP280;15142;48.888;9.134;2023-06-22T07:09:08;98008.66;;;24.00
6550;BMP280;15142;48.888;9.134;2023-06-22T07:11:37;98001.25;;;24.09
6550;BMP280;15142;48.888;9.134;2023-06-22T07:14:08;98012.47;;;24.17
6550;BMP280;15142;48.888;9.134;2023-06-22T07:16:36;97999.06;;;24.25
6550;BMP280;15142;48.888;9.134;2023-06-22T07:19:05;97993.16;;;24.35
6550;BMP280;15142;48.888;9.134;2023-06-22T07:21:33;97992.03;;;24.39
6550;BMP280;15142;48.888;9.134;2023-06-22T07:24:02;97986.88;;;24.56
6550;BMP280;15142;48.888;9.134;2023-06-22T07:26:31;97977.22;;;24.74
6550;BMP280;15142;48.888;9.134;2023-06-22T07:29:00;97972.78;;;24.92
6550;BMP280;15142;48.888;9.134;2023-06-22T07:31:32;97964.19;;;25.01
6550;BMP280;15142;48.888;9.134;2023-06-22T07:34:00;97966.81;;;25.08
6550;BMP280;15142;48.888;9.134;2023-06-22T07:36:30;97958.59;;;25.10
6550;BMP280;15142;48.888;9.134;2023-06-22T07:38:58;97960.84;;;25.18
6550;BMP280;15142;48.888;9.134;2023-06-22T07:41:27;97961.53;;;25.43
6550;BMP280;15142;48.888;9.134;2023-06-22T07:43:56;97955.91;;;25.61
6550;BMP280;15142;48.888;9.134;2023-06-22T07:46:24;97953.25;;;25.68
6550;BMP280;15142;48.888;9.134;2023-06-22T07:48:58;97949.16;;;25.60
6550;BMP280;15142;48.888;9.134;2023-06-22T07:51:26;97949.19;;;25.57
6550;BMP280;15142;48.888;9.134;2023-06-22T07:53:55;97946.16;;;25.75
6550;BMP280;15142;48.888;9.134;2023-06-22T07:56:24;97937.91;;;25.77
6550;BMP280;15142;48.888;9.134;2023-06-22T07:58:52;97947.59;;;25.83
6550;BMP280;15142;48.888;9.134;2023-06-22T08:01:23;97937.88;;;25.80
6550;BMP280;15142;48.888;9.134;2023-06-22T08:03:52;97944.22;;;25.93
6550;BMP280;15142;48.888;9.134;2023-06-22T08:06:23;97956.09;;;26.11
6550;BMP280;15142;48.888;9.134;2023-06-22T08:08:52;97964.25;;;26.27
6550;BMP280;15142;48.888;9.134;2023-06-22T08:11:22;97968.25;;;26.45
6550;BMP280;15142;48.888;9.134;2023-06-22T08:13:51;97981.63;;;26.64
6550;BMP280;15142;48.888;9.134;2023-06-22T08:16:21;97971.75;;;26.82
6550;BMP280;15142;48.888;9.134;2023-06-22T08:18:50;97973.31;;;26.69
6550;BMP280;15142;48.888;9.134;2023-06-22T08:21:18;97974.88;;;26.60
6550;BMP280;15142;48.888;9.134;2023-06-22T08:23:50;97988.97;;;26.79
6550;BMP280;15142;48.888;9.134;2023-06-22T08:26:18;97995.66;;;27.34
6550;BMP280;15142;48.888;9.134;2023-06-22T08:28:47;97994.44;;;27.41
6550;BMP280;15142;48.888;9.134;2023-06-22T08:31:16;97981.75;;;26.93
6550;BMP280;15142;48.888;9.134;2023-06-22T08:33:44;97974.31;;;26.89
6550;BMP280;15142;48.888;9.134;2023-06-22T08:36:13;97978.22;;;27.10
6550;BMP280;15142;48.888;9.134;2023-06-22T08:38:41;97987.16;;;27.16
6550;BMP280;15142;48.888;9.134;2023-06-22T08:41:13;97979.06;;;27.04
6550;BMP280;15142;48.888;9.134;2023-06-22T08:43:42;97979.84;;;27.01
6550;BMP280;15142;48.888;9.134;2023-06-22T08:46:10;97983.16;;;27.01
6550;BMP280;15142;48.888;9.134;2023-06-22T08:48:39;97972.41;;;26.92
6550;BMP280;15142;48.888;9.134;2023-06-22T08:51:07;97976.13;;;26.95
6550;BMP280;15142;48.888;9.134;2023-06-22T08:53:36;97966.38;;;26.95
6550;BMP280;15142;48.888;9.134;2023-06-22T08:56:05;97964.56;;;26.89
6550;BMP280;15142;48.888;9.134;2023-06-22T08:58:36;97979.09;;;27.00
6550;BMP280;15142;48.888;9.134;2023-06-22T09:01:04;97983.41;;;27.17
6550;BMP280;15142;48.888;9.134;2023-06-22T09:06:03;97987.91;;;27.56
6550;BMP280;15142;48.888;9.134;2023-06-22T09:08:32;98002.50;;;27.90
6550;BMP280;15142;48.888;9.134;2023-06-22T09:11:00;98026.06;;;27.64
6550;BMP280;15142;48.888;9.134;2023-06-22T09:13:30;98036.75;;;27.43
6550;BMP280;15142;48.888;9.134;2023-06-22T09:16:01;98007.44;;;27.85
6550;BMP280;15142;48.888;9.134;2023-06-22T09:18:30;97973.22;;;27.95
6550;BMP280;15142;48.888;9.134;2023-06-22T09:20:59;97958.19;;;27.95
6550;BMP280;15142;48.888;9.134;2023-06-22T09:23:28;97970.84;;;27.41
6550;BMP280;15142;48.888;9.134;2023-06-22T09:25:56;97979.91;;;27.34
6550;BMP280;15142;48.888;9.134;2023-06-22T09:28:25;97958.72;;;27.84
6550;BMP280;15142;48.888;9.134;2023-06-22T09:30:54;97964.19;;;27.96
6550;BMP280;15142;48.888;9.134;2023-06-22T09:33:26;97952.69;;;28.12
6550;BMP280;15142;48.888;9.134;2023-06-22T09:35:55;97946.59;;;28.48
6550;BMP280;15142;48.888;9.134;2023-06-22T09:38:23;97937.97;;;28.70
6550;BMP280;15142;48.888;9.134;2023-06-22T09:40:52;97938.94;;;28.57
6550;BMP280;15142;48.888;9.134;2023-06-22T09:43:21;97926.13;;;28.82
6550;BMP280;15142;48.888;9.134;2023-06-22T09:45:49;97912.72;;;28.95
6550;BMP280;15142;48.888;9.134;2023-06-22T09:48:17;97913.66;;;28.85
6550;BMP280;15142;48.888;9.134;2023-06-22T09:50:49;97903.47;;;29.10
6550;BMP280;15142;48.888;9.134;2023-06-22T09:53:17;97896.66;;;29.47
6550;BMP280;15142;48.888;9.134;2023-06-22T09:55:46;97895.66;;;29.60
6550;BMP280;15142;48.888;9.134;2023-06-22T09:58:15;97901.16;;;29.85
6550;BMP280;15142;48.888;9.134;2023-06-22T10:00:43;97905.69;;;30.16
6550;BMP280;15142;48.888;9.134;2023-06-22T10:03:11;97898.50;;;29.85
6550;BMP280;15142;48.888;9.134;2023-06-22T10:05:40;97891.53;;;29.94
6550;BMP280;15142;48.888;9.134;2023-06-22T10:08:11;97897.63;;;29.91
6550;BMP280;15142;48.888;9.134;2023-06-22T10:10:40;97893.13;;;29.73
6550;BMP280;15142;48.888;9.134;2023-06-22T10:13:09;97892.81;;;29.86
6550;BMP280;15142;48.888;9.134;2023-06-22T10:15:38;97899.19;;;29.54
6550;BMP280;15142;48.888;9.134;2023-06-22T10:18:07;97898.97;;;29.64
6550;BMP280;15142;48.888;9.134;2023-06-22T10:20:36;97892.00;;;29.74
6550;BMP280;15142;48.888;9.134;2023-06-22T10:23:05;97887.44;;;29.93
6550;BMP280;15142;48.888;9.134;2023-06-22T10:25:36;97875.72;;;30.25
6550;BMP280;15142;48.888;9.134;2023-06-22T10:28:04;97881.13;;;30.34
6550;BMP280;15142;48.888;9.134;2023-06-22T10:30:32;97875.81;;;30.66
6550;BMP280;15142;48.888;9.134;2023-06-22T10:33:01;97884.84;;;30.96
6550;BMP280;15142;48.888;9.134;2023-06-22T10:35:30;97883.13;;;31.02
6550;BMP280;15142;48.888;9.134;2023-06-22T10:37:59;97860.31;;;30.83
6550;BMP280;15142;48.888;9.134;2023-06-22T10:40:27;97860.47;;;30.49
6550;BMP280;15142;48.888;9.134;2023-06-22T10:42:58;97858.22;;;31.03
6550;BMP280;15142;48.888;9.134;2023-06-22T10:45:27;97860.50;;;31.17
6550;BMP280;15142;48.888;9.134;2023-06-22T10:47:55;97856.25;;;31.07
6550;BMP280;15142;48.888;9.134;2023-06-22T10:50:24;97858.22;;;31.03
6550;BMP280;15142;48.888;9.134;2023-06-22T10:52:53;97840.66;;;31.24
6550;BMP280;15142;48.888;9.134;2023-06-22T10:55:22;97832.91;;;31.17
6550;BMP280;15142;48.888;9.134;2023-06-22T10:57:51;97846.00;;;30.96
6550;BMP280;15142;48.888;9.134;2023-06-22T11:00:22;97842.94;;;31.10
6550;BMP280;15142;48.888;9.134;2023-06-22T11:02:50;97835.50;;;31.58
6550;BMP280;15142;48.888;9.134;2023-06-22T11:05:19;97845.47;;;31.99
6550;BMP280;15142;48.888;9.134;2023-06-22T11:07:48;97841.25;;;32.35
6550;BMP280;15142;48.888;9.134;2023-06-22T11:10:17;97844.63;;;32.35
6550;BMP280;15142;48.888;9.134;2023-06-22T11:12:45;97841.59;;;32.25
6550;BMP280;15142;48.888;9.134;2023-06-22T11:15:13;97832.16;;;32.36
6550;BMP280;15142;48.888;9.134;2023-06-22T11:17:45;97836.31;;;31.55
6550;BMP280;15142;48.888;9.134;2023-06-22T11:20:13;97830.63;;;31.56
6550;BMP280;15142;48.888;9.134;2023-06-22T11:22:42;97832.84;;;31.70
6550;BMP280;15142;48.888;9.134;2023-06-22T11:25:11;97829.97;;;31.64
6550;BMP280;15142;48.888;9.134;2023-06-22T11:27:39;97836.75;;;31.65
6550;BMP280;15142;48.888;9.134;2023-06-22T11:30:09;97836.97;;;31.46
6550;BMP280;15142;48.888;9.134;2023-06-22T11:32:37;97833.47;;;30.73
6550;BMP280;15142;48.888;9.134;2023-06-22T11:35:09;97831.75;;;30.23
6550;BMP280;15142;48.888;9.134;2023-06-22T11:37:37;97825.66;;;30.10
6550;BMP280;15142;48.888;9.134;2023-06-22T11:40:07;97823.97;;;30.03
6550;BMP280;15142;48.888;9.134;2023-06-22T11:42:36;97815.72;;;30.17
6550;BMP280;15142;48.888;9.134;2023-06-22T11:45:06;97809.59;;;30.20
6550;BMP280;15142;48.888;9.134;2023-06-22T11:47:35;97800.00;;;30.42
6550;BMP280;15142;48.888;9.134;2023-06-22T11:50:06;97810.19;;;30.55
6550;BMP280;15142;48.888;9.134;2023-06-22T11:52:37;97810.84;;;30.16
6550;BMP280;15142;48.888;9.134;2023-06-22T11:55:07;97816.84;;;30.16
6550;BMP280;15142;48.888;9.134;2023-06-22T11:57:37;97806.84;;;30.11
6550;BMP280;15142;48.888;9.134;2023-06-22T12:00:07;97803.69;;;30.16
6550;BMP280;15142;48.888;9.134;2023-06-22T12:02:41;97802.91;;;30.03
6550;BMP280;15142;48.888;9.134;2023-06-22T12:05:10;97809.31;;;29.71
6550;BMP280;15142;48.888;9.134;2023-06-22T12:07:42;97814.78;;;29.61
6550;BMP280;15142;48.888;9.134;2023-06-22T12:10:10;97818.38;;;29.51
6550;BMP280;15142;48.888;9.134;2023-06-22T12:12:39;97833.31;;;29.57
6550;BMP280;15142;48.888;9.134;2023-06-22T12:15:09;97851.25;;;29.78
6550;BMP280;15142;48.888;9.134;2023-06-22T12:17:38;97843.13;;;29.88
6550;BMP280;15142;48.888;9.134;2023-06-22T12:20:08;97833.16;;;29.80
6550;BMP280;15142;48.888;9.134;2023-06-22T12:22:36;97820.41;;;29.78
6550;BMP280;15142;48.888;9.134;2023-06-22T12:25:09;97830.53;;;29.80
6550;BMP280;15142;48.888;9.134;2023-06-22T12:27:37;97825.19;;;29.83
6550;BMP280;15142;48.888;9.134;2023-06-22T12:30:08;97835.22;;;29.73
6550;BMP280;15142;48.888;9.134;2023-06-22T12:32:37;97834.56;;;29.84
6550;BMP280;15142;48.888;9.134;2023-06-22T12:35:07;97828.56;;;30.00
6550;BMP280;15142;48.888;9.134;2023-06-22T12:37:40;97815.88;;;29.95
6550;BMP280;15142;48.888;9.134;2023-06-22T12:40:11;97822.91;;;30.17
6550;BMP280;15142;48.888;9.134;2023-06-22T12:42:40;97815.94;;;30.23
6550;BMP280;15142;48.888;9.134;2023-06-22T12:45:10;97835.94;;;30.36
6550;BMP280;15142;48.888;9.134;2023-06-22T12:47:38;97842.81;;;30.61
6550;BMP280;15142;48.888;9.134;2023-06-22T12:50:07;97840.03;;;30.80
6550;BMP280;15142;48.888;9.134;2023-06-22T12:52:36;97831.00;;;30.94
6550;BMP280;15142;48.888;9.134;2023-06-22T12:55:07;97833.41;;;30.88
6550;BMP280;15142;48.888;9.134;2023-06-22T12:57:39;97834.09;;;30.76
6550;BMP280;15142;48.888;9.134;2023-06-22T13:00:08;97847.78;;;30.72
6550;BMP280;15142;48.888;9.134;2023-06-22T13:02:37;97841.97;;;30.64
6550;BMP280;15142;48.888;9.134;2023-06-22T13:05:06;97846.47;;;30.51
6550;BMP280;15142;48.888;9.134;2023-06-22T13:07:35;97846.25;;;30.30
6550;BMP280;15142;48.888;9.134;2023-06-22T13:10:05;97842.16;;;30.14
6550;BMP280;15142;48.888;9.134;2023-06-22T13:12:34;97844.03;;;30.13
6550;BMP280;15142;48.888;9.134;2023-06-22T13:15:06;97841.66;;;30.19
6550;BMP280;15142;48.888;9.134;2023-06-22T13:17:34;97839.44;;;30.17
6550;BMP280;15142;48.888;9.134;2023-06-22T13:20:05;97841.81;;;30.12
6550;BMP280;15142;48.888;9.134;2023-06-22T13:22:34;97832.75;;;30.13
6550;BMP280;15142;48.888;9.134;2023-06-22T13:25:06;97835.88;;;29.92
6550;BMP280;15142;48.888;9.134;2023-06-22T13:27:37;97829.13;;;30.07
6550;BMP280;15142;48.888;9.134;2023-06-22T13:30:10;97820.88;;;30.21
6550;BMP280;15142;48.888;9.134;2023-06-22T13:32:38;97811.88;;;30.34
6550;BMP280;15142;48.888;9.134;2023-06-22T13:35:08;97804.81;;;30.47
6550;BMP280;15142;48.888;9.134;2023-06-22T13:37:37;97803.34;;;30.58
6550;BMP280;15142;48.888;9.134;2023-06-22T13:40:06;97793.91;;;30.73
6550;BMP280;15142;48.888;9.134;2023-06-22T13:42:36;97782.69;;;30.96
6550;BMP280;15142;48.888;9.134;2023-06-22T13:45:05;97779.31;;;31.20
6550;BMP280;15142;48.888;9.134;2023-06-22T13:47:37;97775.28;;;31.28
6550;BMP280;15142;48.888;9.134;2023-06-22T13:50:06;97776.94;;;31.71
6550;BMP280;15142;48.888;9.134;2023-06-22T13:52:36;97776.19;;;32.58
6550;BMP280;15142;48.888;9.134;2023-06-22T13:55:05;97750.34;;;32.62
6550;BMP280;15142;48.888;9.134;2023-06-22T13:57:35;97766.47;;;32.56
6550;BMP280;15142;48.888;9.134;2023-06-22T14:00:05;97756.25;;;32.24
6550;BMP280;15142;48.888;9.134;2023-06-22T14:02:42;97752.06;;;31.93
6550;BMP280;15142;48.888;9.134;2023-06-22T14:05:11;97740.19;;;31.64
6550;BMP280;15142;48.888;9.134;2023-06-22T14:07:39;97738.00;;;31.39
6550;BMP280;15142;48.888;9.134;2023-06-22T14:10:08;97721.47;;;31.01
6550;BMP280;15142;48.888;9.134;2023-06-22T14:12:37;97724.22;;;30.98
6550;BMP280;15142;48.888;9.134;2023-06-22T14:15:06;97732.31;;;31.03
6550;BMP280;15142;48.888;9.134;2023-06-22T14:17:35;97739.41;;;31.18
6550;BMP280;15142;48.888;9.134;2023-06-22T14:20:07;97734.97;;;31.16
6550;BMP280;15142;48.888;9.134;2023-06-22T14:22:36;97738.78;;;31.15
6550;BMP280;15142;48.888;9.134;2023-06-22T14:25:06;97730.94;;;31.23
6550;BMP280;15142;48.888;9.134;2023-06-22T14:27:35;97742.59;;;31.84
6550;BMP280;15142;48.888;9.134;2023-06-22T14:30:05;97748.00;;;32.22
6550;BMP280;15142;48.888;9.134;2023-06-22T14:32:34;97732.91;;;32.23
6550;BMP280;15142;48.888;9.134;2023-06-22T14:35:03;97739.53;;;32.27
6550;BMP280;15142;48.888;9.134;2023-06-22T14:37:34;97742.13;;;32.18